Time;durP1;ratioP1;P1;durP2;ratioP2;P2;SDS_P1;SDS_P2;PMS_P1;PMS_P2;Temp;Humidity;BMP_temperature;BMP_pressure;BME280_temperature;BME280_humidity;BME280_pressure;Samples;Min_cycle;Max_cycle;Signal;HPM_P1;HPM_P2
2022/10/31 00:00:24;;;;;;;1.87;0.80;;;12.90;99.90;;;;;;4814989;29;20463;-84
2022/10/31 00:02:50;;;;;;;0.80;0.80;;;12.80;99.90;;;;;;4828196;29;20061;-86
2022/10/31 00:05:16;;;;;;;1.73;1.30;;;12.80;99.90;;;;;;4829308;29;20057;-84
2022/10/31 00:07:41;;;;;;;1.70;0.83;;;12.80;99.90;;;;;;4814812;29;20366;-88
2022/10/31 00:10:12;;;;;;;0.53;0.53;;;12.80;99.90;;;;;;4844518;29;20084;-84
2022/10/31 00:12:38;;;;;;;0.75;0.60;;;12.70;99.90;;;;;;4829450;29;20037;-85
2022/10/31 00:15:04;;;;;;;0.50;0.50;;;12.70;99.90;;;;;;4830029;29;20139;-84
2022/10/31 00:17:30;;;;;;;0.50;0.50;;;12.70;99.90;;;;;;4830645;29;20136;-87
2022/10/31 00:19:56;;;;;;;0.93;0.83;;;12.70;99.90;;;;;;4828928;29;20141;-84
2022/10/31 00:22:22;;;;;;;0.30;0.30;;;12.60;99.90;;;;;;4829384;29;20098;-84
2022/10/31 00:24:48;;;;;;;1.60;1.33;;;12.60;99.90;;;;;;4829165;29;20053;-84
2022/10/31 00:27:13;;;;;;;0.40;0.40;;;12.60;99.90;;;;;;4828859;29;20049;-88
2022/10/31 00:29:39;;;;;;;2.37;0.73;;;12.60;99.90;;;;;;4828771;29;21863;-85
2022/10/31 00:32:07;;;;;;;0.77;0.67;;;12.00;99.90;;;;;;4829325;29;20473;-85
2022/10/31 00:34:33;;;;;;;0.80;0.70;;;12.60;99.90;;;;;;4842114;29;20042;-84
2022/10/31 00:36:58;;;;;;;0.30;0.30;;;12.60;99.90;;;;;;4829309;29;20045;-84
2022/10/31 00:39:24;;;;;;;0.20;0.20;;;11.80;99.90;;;;;;4828028;29;20105;-84
2022/10/31 00:41:50;;;;;;;1.17;0.50;;;12.60;99.90;;;;;;4829025;29;20081;-84
2022/10/31 00:44:15;;;;;;;1.33;0.50;;;12.50;99.90;;;;;;4826464;29;20088;-84
2022/10/31 00:46:41;;;;;;;1.43;1.03;;;12.50;99.90;;;;;;4845629;29;20096;-84
2022/10/31 00:49:07;;;;;;;1.00;0.57;;;12.50;99.90;;;;;;4844690;29;20068;-87
2022/10/31 00:51:32;;;;;;;0.40;0.40;;;12.50;99.90;;;;;;4813083;29;20042;-84
2022/10/31 00:53:58;;;;;;;0.50;0.50;;;12.40;99.90;;;;;;4813630;29;20072;-87
2022/10/31 00:56:24;;;;;;;1.10;1.00;;;12.40;99.90;;;;;;4827910;29;20049;-84
2022/10/31 00:58:49;;;;;;;0.77;0.47;;;12.40;99.90;;;;;;4829371;29;20052;-84
2022/10/31 01:01:15;;;;;;;0.63;0.43;;;12.40;99.90;;;;;;4829551;29;20602;-84
2022/10/31 01:03:41;;;;;;;1.27;0.63;;;12.40;99.90;;;;;;4813560;29;20128;-84
2022/10/31 01:06:10;;;;;;;0.70;0.53;;;12.40;99.90;;;;;;4813714;29;20392;-84
2022/10/31 01:08:37;;;;;;;0.73;0.73;;;12.40;99.90;;;;;;4843530;29;20049;-84
2022/10/31 01:11:19;;;;;;;0.90;0.70;;;12.40;99.90;;;;;;4829037;29;20046;-84
2022/10/31 01:13:45;;;;;;;0.40;0.40;;;12.40;99.90;;;;;;4828406;29;20098;-84
2022/10/31 01:16:14;;;;;;;0.60;0.60;;;12.30;99.90;;;;;;4842671;29;20057;-87
2022/10/31 01:18:40;;;;;;;0.32;0.32;;;12.30;99.90;;;;;;4827815;29;20048;-89
2022/10/31 01:21:10;;;;;;;0.73;0.40;;;12.30;99.90;;;;;;4828509;29;20136;-84
2022/10/31 01:23:36;;;;;;;1.10;0.90;;;12.20;99.90;;;;;;4828377;29;20050;-84
2022/10/31 01:26:11;;;;;;;0.77;0.73;;;12.20;99.90;;;;;;4827760;29;20058;-86
2022/10/31 01:28:39;;;;;;;1.48;0.63;;;12.20;99.90;;;;;;4829444;29;20492;-84
2022/10/31 01:31:08;;;;;;;1.42;0.50;;;12.10;99.90;;;;;;4827793;29;20497;-87
2022/10/31 01:33:34;;;;;;;1.08;0.65;;;12.10;99.90;;;;;;4828194;29;20070;-84
2022/10/31 01:36:00;;;;;;;0.50;0.50;;;12.10;99.90;;;;;;4828071;29;20041;-84
2022/10/31 01:38:26;;;;;;;0.77;0.77;;;12.10;99.90;;;;;;4827928;29;20048;-84
2022/10/31 01:40:52;;;;;;;0.50;0.45;;;12.10;99.90;;;;;;4827616;29;20052;-84
2022/10/31 01:43:18;;;;;;;0.73;0.73;;;12.10;99.90;;;;;;4827038;29;20144;-85
2022/10/31 01:45:51;;;;;;;1.42;0.60;;;12.10;99.90;;;;;;4826862;29;20512;-84
2022/10/31 01:48:23;;;;;;;0.90;0.50;;;12.10;99.90;;;;;;4824997;29;20053;-85
2022/10/31 01:50:54;;;;;;;1.00;0.40;;;12.10;99.90;;;;;;4840387;29;20053;-84
2022/10/31 01:53:20;;;;;;;1.55;0.63;;;12.10;99.90;;;;;;4827735;29;20085;-84
2022/10/31 01:55:46;;;;;;;0.30;0.30;;;12.10;99.90;;;;;;4811911;29;20496;-85
2022/10/31 01:58:16;;;;;;;0.47;0.47;;;12.10;99.90;;;;;;4826956;29;20045;-84
2022/10/31 02:00:45;;;;;;;1.63;1.08;;;12.10;99.90;;;;;;4827207;29;20084;-85
2022/10/31 02:03:11;;;;;;;3.03;1.25;;;12.00;99.90;;;;;;4827688;29;20057;-89
2022/10/31 02:05:37;;;;;;;0.95;0.45;;;12.00;99.90;;;;;;4809426;29;20820;-84
2022/10/31 02:08:21;;;;;;;1.45;0.68;;;12.00;99.90;;;;;;4811132;29;20117;-84
2022/10/31 02:10:47;;;;;;;1.80;0.73;;;11.90;99.90;;;;;;4827230;29;20057;-84
2022/10/31 02:13:13;;;;;;;0.40;0.30;;;11.90;99.90;;;;;;4796679;29;20505;-84
2022/10/31 02:15:40;;;;;;;0.98;0.77;;;11.80;99.90;;;;;;4840335;29;20045;-84
2022/10/31 02:18:07;;;;;;;0.65;0.65;;;11.80;99.90;;;;;;4827963;29;20057;-84
2022/10/31 02:20:48;;;;;;;1.25;0.52;;;11.80;99.90;;;;;;4825215;29;20049;-84
2022/10/31 02:23:41;;;;;;;0.52;0.52;;;11.70;99.90;;;;;;4842252;29;20045;-84
2022/10/31 02:26:13;;;;;;;0.60;0.60;;;11.70;99.90;;;;;;4827161;29;20053;-84
2022/10/31 02:29:01;;;;;;;0.73;0.50;;;11.70;99.90;;;;;;4836322;29;20049;-84
2022/10/31 02:31:26;;;;;;;0.63;0.63;;;11.70;99.90;;;;;;4843282;29;20050;-85
2022/10/31 02:33:57;;;;;;;1.03;0.43;;;11.70;99.90;;;;;;4827201;29;20049;-84
2022/10/31 02:36:38;;;;;;;0.45;0.35;;;11.60;99.90;;;;;;4827399;29;20050;-89
2022/10/31 02:39:19;;;;;;;0.50;0.50;;;11.70;99.90;;;;;;4843004;29;20053;-84
2022/10/31 02:42:03;;;;;;;0.60;0.60;;;11.60;99.90;;;;;;4837668;29;20255;-84
2022/10/31 02:44:36;;;;;;;1.35;0.50;;;11.60;99.90;;;;;;4840262;29;20049;-84
2022/10/31 02:47:11;;;;;;;1.13;0.50;;;11.50;99.90;;;;;;4827024;29;20072;-84
2022/10/31 02:49:46;;;;;;;0.98;0.70;;;11.50;99.90;;;;;;4825846;29;20054;-84
2022/10/31 02:52:26;;;;;;;0.47;0.40;;;11.50;99.90;;;;;;4839421;29;20053;-84
2022/10/31 02:54:52;;;;;;;0.55;0.55;;;11.40;99.90;;;;;;4826390;29;20053;-84
2022/10/31 02:57:24;;;;;;;1.15;0.85;;;11.40;99.90;;;;;;4826591;29;20073;-84
2022/10/31 02:59:55;;;;;;;0.82;0.82;;;11.50;99.90;;;;;;4819466;29;20050;-84
2022/10/31 03:02:38;;;;;;;1.45;0.65;;;11.40;99.90;;;;;;4843550;29;20051;-84
2022/10/31 03:05:45;;;;;;;0.30;0.30;;;11.40;99.90;;;;;;4830742;29;20046;-84
2022/10/31 03:08:26;;;;;;;0.40;0.40;;;11.40;99.90;;;;;;4809327;29;20053;-84
2022/10/31 03:11:00;;;;;;;0.65;0.60;;;11.40;99.90;;;;;;4841760;29;20480;-84
2022/10/31 03:13:40;;;;;;;0.93;0.50;;;11.40;99.90;;;;;;4843300;29;20056;-84
2022/10/31 03:16:23;;;;;;;0.35;0.35;;;11.40;99.90;;;;;;4838994;29;20049;-85
2022/10/31 03:18:52;;;;;;;0.90;0.80;;;11.40;99.90;;;;;;4833572;29;20081;-85
2022/10/31 03:21:39;;;;;;;1.55;0.70;;;11.30;99.90;;;;;;4845967;29;20492;-84
2022/10/31 03:24:06;;;;;;;0.60;0.60;;;11.30;99.90;;;;;;4845447;29;20065;-84
2022/10/31 03:26:33;;;;;;;0.68;0.60;;;11.30;99.90;;;;;;4845453;29;20045;-91
2022/10/31 03:29:05;;;;;;;0.80;0.55;;;11.30;99.90;;;;;;4848010;29;20408;-84
2022/10/31 03:31:36;;;;;;;0.25;0.25;;;11.30;99.90;;;;;;4846430;29;20412;-83
2022/10/31 03:34:03;;;;;;;0.88;0.47;;;11.30;99.90;;;;;;4842834;29;20056;-84
2022/10/31 03:36:33;;;;;;;;;;;11.20;99.90;;;;;;4830163;29;20045;-84
2022/10/31 03:39:04;;;;;;;0.45;0.45;;;11.20;99.90;;;;;;4844961;29;19924;-84
2022/10/31 03:41:35;;;;;;;0.50;0.50;;;11.10;99.90;;;;;;4823442;29;20120;-84
2022/10/31 03:44:10;;;;;;;2.13;0.70;;;11.10;99.90;;;;;;4845754;29;20057;-84
2022/10/31 03:46:36;;;;;;;0.43;0.35;;;11.00;99.90;;;;;;4844177;29;20053;-87
2022/10/31 03:49:02;;;;;;;0.73;0.43;;;10.90;99.90;;;;;;4828482;29;20054;-84
2022/10/31 03:51:56;;;;;;;0.52;0.52;;;10.90;99.90;;;;;;4814273;29;20053;-84
2022/10/31 03:54:45;;;;;;;0.52;0.52;;;10.80;99.90;;;;;;4843399;29;20060;-84
2022/10/31 03:57:31;;;;;;;1.65;0.82;;;10.70;99.90;;;;;;4844334;29;20054;-88
2022/10/31 04:00:08;;;;;;;1.23;0.45;;;10.70;99.90;;;;;;4845710;29;20057;-86
2022/10/31 04:02:37;;;;;;;0.20;0.20;;;10.70;99.90;;;;;;4830277;29;20093;-84
2022/10/31 04:05:03;;;;;;;0.40;0.40;;;10.60;99.90;;;;;;4845264;29;20099;-85
2022/10/31 04:07:38;;;;;;;0.60;0.38;;;10.50;99.90;;;;;;4828796;29;20511;-86
2022/10/31 04:10:09;;;;;;;0.73;0.73;;;10.50;99.90;;;;;;4830098;29;20057;-86
2022/10/31 04:12:35;;;;;;;1.10;0.80;;;10.40;99.90;;;;;;4843035;29;20037;-84
2022/10/31 04:15:02;;;;;;;;;;;10.40;99.90;;;;;;4825843;29;20057;-84
2022/10/31 04:17:32;;;;;;;0.67;0.47;;;10.30;99.90;;;;;;4844815;29;19931;-85
2022/10/31 04:20:02;;;;;;;0.57;0.45;;;10.30;99.90;;;;;;4828870;29;20400;-84
2022/10/31 04:22:28;;;;;;;0.40;0.40;;;10.30;99.90;;;;;;4828622;29;20045;-84
2022/10/31 04:24:53;;;;;;;0.50;0.50;;;10.20;99.90;;;;;;4829395;29;20055;-84
2022/10/31 04:27:21;;;;;;;0.83;0.77;;;10.20;99.90;;;;;;4842993;29;20520;-84
2022/10/31 04:29:47;;;;;;;1.25;0.80;;;10.20;99.90;;;;;;4855742;29;20186;-85
2022/10/31 04:32:13;;;;;;;1.40;0.97;;;10.20;99.90;;;;;;4844638;29;20120;-84
2022/10/31 04:34:38;;;;;;;1.50;0.60;;;10.20;99.90;;;;;;4844613;29;20198;-84
2022/10/31 04:37:04;;;;;;;1.20;0.50;;;10.10;99.90;;;;;;4813326;29;20129;-88
2022/10/31 04:39:30;;;;;;;0.43;0.43;;;10.20;99.90;;;;;;4810958;29;20050;-84
2022/10/31 04:41:55;;;;;;;1.07;0.60;;;10.20;99.90;;;;;;4829161;29;20061;-84
2022/10/31 04:44:21;;;;;;;0.93;0.60;;;10.10;99.90;;;;;;4844707;29;20140;-84
2022/10/31 04:46:47;;;;;;;1.13;0.50;;;10.10;99.90;;;;;;4813045;29;20098;-85
2022/10/31 04:49:13;;;;;;;0.57;0.57;;;10.10;99.90;;;;;;4828088;29;20137;-85
2022/10/31 04:51:38;;;;;;;0.70;0.50;;;10.10;99.90;;;;;;4833576;29;20050;-85
2022/10/31 04:54:04;;;;;;;0.80;0.63;;;10.10;99.90;;;;;;4843749;29;20121;-84
2022/10/31 04:56:30;;;;;;;0.73;0.73;;;10.10;99.90;;;;;;4843644;29;20101;-85
2022/10/31 04:58:56;;;;;;;0.70;0.60;;;10.10;99.90;;;;;;4845236;29;20479;-85
2022/10/31 05:01:21;;;;;;;1.30;0.73;;;10.00;99.90;;;;;;4847022;29;20148;-86
2022/10/31 05:03:47;;;;;;;1.40;0.93;;;10.10;99.90;;;;;;4828906;29;20073;-89
2022/10/31 05:06:13;;;;;;;0.53;0.40;;;10.00;99.90;;;;;;4826729;29;20383;-84
2022/10/31 05:08:38;;;;;;;1.07;0.77;;;10.00;99.90;;;;;;4828702;29;20049;-84
2022/10/31 05:11:05;;;;;;;1.20;0.53;;;10.00;99.90;;;;;;4842958;29;20057;-84
2022/10/31 05:13:30;;;;;;;0.68;0.68;;;9.90;99.90;;;;;;4859184;29;20128;-87
2022/10/31 05:15:56;;;;;;;0.90;0.80;;;9.90;99.90;;;;;;4843350;29;20140;-85
2022/10/31 05:18:22;;;;;;;0.63;0.63;;;9.80;99.90;;;;;;4842965;29;20337;-84
2022/10/31 05:20:48;;;;;;;1.80;0.67;;;9.80;99.90;;;;;;4827120;29;20049;-84
2022/10/31 05:23:14;;;;;;;0.73;0.67;;;9.70;99.90;;;;;;4842752;29;20046;-84
2022/10/31 05:25:40;;;;;;;0.55;0.50;;;9.70;99.90;;;;;;4858937;29;20069;-86
2022/10/31 05:28:09;;;;;;;0.85;0.68;;;9.70;99.90;;;;;;4858065;29;20064;-84
2022/10/31 05:30:35;;;;;;;0.90;0.40;;;9.80;99.90;;;;;;4860028;29;20449;-84
2022/10/31 05:33:01;;;;;;;0.97;0.57;;;9.60;99.90;;;;;;4843157;29;20132;-84
2022/10/31 05:35:29;;;;;;;1.42;0.70;;;9.50;99.90;;;;;;4843646;29;20053;-84
2022/10/31 05:37:57;;;;;;;0.52;0.50;;;9.60;99.90;;;;;;4842568;29;20053;-85
2022/10/31 05:40:23;;;;;;;1.00;0.68;;;9.60;99.90;;;;;;4842800;29;20045;-84
2022/10/31 05:42:51;;;;;;;1.45;0.70;;;9.50;99.90;;;;;;4843708;29;20048;-84
2022/10/31 05:45:18;;;;;;;2.42;0.50;;;9.50;99.90;;;;;;4855812;29;20042;-84
2022/10/31 05:48:00;;;;;;;0.68;0.65;;;9.50;99.90;;;;;;4827745;29;20134;-84
2022/10/31 05:50:28;;;;;;;0.80;0.50;;;9.50;99.90;;;;;;4856917;29;20136;-84
2022/10/31 05:53:02;;;;;;;0.52;0.52;;;9.40;99.90;;;;;;4843264;29;20052;-88
2022/10/31 05:55:29;;;;;;;0.52;0.50;;;9.40;99.90;;;;;;4825767;29;20053;-84
2022/10/31 05:57:55;;;;;;;;;;;9.40;99.90;;;;;;4841477;29;20501;-88
2022/10/31 06:00:22;;;;;;;0.77;0.40;;;9.40;99.90;;;;;;4824377;29;19931;-83
2022/10/31 06:02:48;;;;;;;0.95;0.70;;;9.30;99.90;;;;;;4828238;29;20049;-84
2022/10/31 06:05:14;;;;;;;0.85;0.85;;;9.40;99.90;;;;;;4827438;29;20492;-84
2022/10/31 06:07:39;;;;;;;2.03;0.55;;;9.30;99.90;;;;;;4861142;29;20045;-84
2022/10/31 06:10:07;;;;;;;0.83;0.50;;;8.50;99.90;;;;;;4825932;29;20112;-90
2022/10/31 06:12:37;;;;;;;0.70;0.70;;;9.30;99.90;;;;;;4841960;29;20436;-91
2022/10/31 06:15:05;;;;;;;0.63;0.45;;;9.30;99.90;;;;;;4826069;29;20045;-90
2022/10/31 06:17:32;;;;;;;0.60;0.60;;;9.20;99.90;;;;;;4842981;29;20136;-91
2022/10/31 06:19:57;;;;;;;0.40;0.40;;;9.20;99.90;;;;;;4844238;29;20067;-86
2022/10/31 06:22:23;;;;;;;0.50;0.50;;;9.40;99.90;;;;;;4842530;29;20049;-88
2022/10/31 06:24:51;;;;;;;0.50;0.40;;;9.20;99.90;;;;;;4826860;29;20049;-87
2022/10/31 06:27:17;;;;;;;1.15;0.60;;;9.20;99.90;;;;;;4843094;29;20051;-87
2022/10/31 06:29:43;;;;;;;0.70;0.60;;;9.20;99.90;;;;;;4843049;29;20045;-87
2022/10/31 06:32:14;;;;;;;0.93;0.60;;;9.20;99.90;;;;;;4842649;29;20053;-86
2022/10/31 06:34:41;;;;;;;1.10;0.60;;;8.00;99.90;;;;;;4842999;29;20136;-86
2022/10/31 06:37:08;;;;;;;0.77;0.50;;;9.10;99.90;;;;;;4861160;29;20140;-83
2022/10/31 06:39:34;;;;;;;0.80;0.45;;;9.20;99.90;;;;;;4847068;29;20122;-86
2022/10/31 06:42:00;;;;;;;0.47;0.47;;;9.10;99.90;;;;;;4847332;29;20450;-87
2022/10/31 06:44:26;;;;;;;1.70;0.95;;;9.10;99.90;;;;;;4863030;29;20054;-87
2022/10/31 06:46:54;;;;;;;0.57;0.50;;;9.20;99.90;;;;;;4847792;29;20113;-87
2022/10/31 06:49:20;;;;;;;1.30;0.45;;;9.10;99.90;;;;;;4845905;29;20052;-89
2022/10/31 06:51:51;;;;;;;0.83;0.70;;;9.00;99.90;;;;;;4861488;29;20053;-88
2022/10/31 06:54:17;;;;;;;0.43;0.38;;;9.10;99.90;;;;;;4846768;29;20057;-88
2022/10/31 06:56:45;;;;;;;1.38;0.93;;;9.10;99.90;;;;;;4862716;29;20088;-87
2022/10/31 06:59:11;;;;;;;0.98;0.50;;;9.00;99.90;;;;;;4845463;29;20569;-85
2022/10/31 07:01:37;;;;;;;0.70;0.70;;;9.10;99.90;;;;;;4831363;29;20053;-85
2022/10/31 07:04:03;;;;;;;0.40;0.40;;;9.10;99.90;;;;;;4847107;29;20049;-83
2022/10/31 07:06:28;;;;;;;0.57;0.57;;;9.10;99.90;;;;;;4862258;29;20091;-85
2022/10/31 07:08:54;;;;;;;0.93;0.60;;;9.10;99.90;;;;;;4860613;29;20057;-81
2022/10/31 07:11:19;;;;;;;1.10;1.00;;;9.20;99.90;;;;;;4814511;29;20056;-87
2022/10/31 07:13:45;;;;;;;0.53;0.53;;;9.10;99.90;;;;;;4829573;29;20042;-85
2022/10/31 07:16:12;;;;;;;0.77;0.40;;;9.20;99.90;;;;;;4830633;29;20049;-86
2022/10/31 07:18:38;;;;;;;1.23;1.13;;;9.20;99.90;;;;;;4832253;29;20105;-86
2022/10/31 07:21:06;;;;;;;0.80;0.60;;;9.20;99.90;;;;;;4828317;29;20046;-85
2022/10/31 07:23:32;;;;;;;0.32;0.32;;;9.10;99.90;;;;;;4828203;29;20054;-86
2022/10/31 07:25:59;;;;;;;2.70;1.00;;;9.50;99.90;;;;;;4843603;29;20061;-85
2022/10/31 07:28:32;;;;;;;;;;;9.10;99.90;;;;;;4850160;29;20401;-87
2022/10/31 07:30:58;;;;;;;0.63;0.45;;;9.20;99.90;;;;;;4848195;29;20006;-87
2022/10/31 07:33:30;;;;;;;1.47;0.60;;;9.10;99.90;;;;;;4824947;29;20129;-86
2022/10/31 07:35:55;;;;;;;0.65;0.65;;;9.20;99.90;;;;;;4846282;29;20064;-87
2022/10/31 07:38:21;;;;;;;1.00;0.43;;;9.30;99.90;;;;;;4845703;29;20450;-86
2022/10/31 07:40:52;;;;;;;1.70;0.70;;;9.20;99.90;;;;;;4831795;29;20100;-83
2022/10/31 07:43:19;;;;;;;1.15;0.60;;;9.30;99.90;;;;;;4830745;29;20101;-87
2022/10/31 07:45:52;;;;;;;1.67;1.15;;;9.30;99.90;;;;;;4846187;29;20501;-86
2022/10/31 07:48:18;;;;;;;0.70;0.70;;;9.40;99.90;;;;;;4861016;29;20049;-85
2022/10/31 07:50:45;;;;;;;1.33;0.57;;;10.20;99.90;;;;;;4865085;29;20409;-86
2022/10/31 07:53:18;;;;;;;0.47;0.47;;;9.60;99.90;;;;;;4835730;29;20114;-87
2022/10/31 07:55:44;;;;;;;1.00;0.60;;;9.60;99.90;;;;;;4845565;29;20050;-87
2022/10/31 07:58:13;;;;;;;0.60;0.60;;;9.70;99.90;;;;;;4859036;29;20082;-87
2022/10/31 08:00:46;;;;;;;0.73;0.73;;;9.80;99.90;;;;;;4841497;29;20060;-90
2022/10/31 08:03:14;;;;;;;1.67;0.80;;;9.90;99.90;;;;;;4843622;29;20045;-86
2022/10/31 08:05:45;;;;;;;1.08;1.00;;;10.00;99.90;;;;;;4845839;29;20049;-86
2022/10/31 08:08:17;;;;;;;0.88;0.70;;;10.10;99.90;;;;;;4847520;29;20052;-86
2022/10/31 08:10:42;;;;;;;0.90;0.30;;;10.20;99.90;;;;;;4875164;29;20524;-87
2022/10/31 08:13:13;;;;;;;1.80;0.33;;;10.30;99.90;;;;;;4845586;29;20081;-87
2022/10/31 08:15:41;;;;;;;0.45;0.40;;;10.50;99.90;;;;;;4845784;29;20128;-86
2022/10/31 08:18:12;;;;;;;0.50;0.50;;;10.60;99.90;;;;;;4861603;29;20093;-86
2022/10/31 08:20:45;;;;;;;0.90;0.50;;;10.60;99.90;;;;;;4861468;29;20053;-87
2022/10/31 08:23:12;;;;;;;0.98;0.47;;;9.60;99.90;;;;;;4846174;29;20045;-87
2022/10/31 08:25:37;;;;;;;;;;;10.70;99.90;;;;;;4846118;29;20080;-88
2022/10/31 08:28:06;;;;;;;0.30;0.30;;;9.80;99.90;;;;;;4827557;29;20380;-87
2022/10/31 08:30:37;;;;;;;0.68;0.50;;;10.90;99.90;;;;;;4842742;29;20104;-87
2022/10/31 08:33:20;;;;;;;1.15;0.70;;;11.10;99.90;;;;;;4860619;29;20116;-87
2022/10/31 08:35:49;;;;;;;0.60;0.60;;;10.30;99.90;;;;;;4847269;29;20486;-86
2022/10/31 08:38:15;;;;;;;1.38;0.98;;;10.10;99.90;;;;;;4856108;29;20645;-86
2022/10/31 08:40:43;;;;;;;0.95;0.88;;;11.30;99.90;;;;;;4846736;29;20128;-86
2022/10/31 08:43:14;;;;;;;1.80;0.80;;;11.40;99.90;;;;;;4861205;29;20046;-88
2022/10/31 08:45:41;;;;;;;0.82;0.68;;;11.50;99.90;;;;;;4860817;29;20098;-87
2022/10/31 08:48:11;;;;;;;0.88;0.45;;;11.60;99.90;;;;;;4830242;29;20509;-87
2022/10/31 08:50:40;;;;;;;2.72;0.90;;;11.70;99.90;;;;;;4860431;29;20068;-86
2022/10/31 08:53:15;;;;;;;1.90;0.73;;;11.80;99.90;;;;;;4860921;29;20045;-86
2022/10/31 08:55:44;;;;;;;1.20;0.93;;;11.90;99.90;;;;;;4860755;29;20049;-87
2022/10/31 08:58:28;;;;;;;0.63;0.63;;;12.00;99.90;;;;;;4845283;29;20140;-87
2022/10/31 09:00:59;;;;;;;0.88;0.65;;;12.00;99.90;;;;;;4846183;29;20166;-86
2022/10/31 09:03:30;;;;;;;1.05;0.90;;;12.00;99.90;;;;;;4844859;29;20050;-93
2022/10/31 09:06:00;;;;;;;0.98;0.90;;;11.20;99.90;;;;;;4849154;29;20309;-87
2022/10/31 09:08:28;;;;;;;1.10;0.75;;;11.60;99.90;;;;;;4869049;29;20060;-93
2022/10/31 09:10:57;;;;;;;1.13;0.55;;;12.30;99.90;;;;;;4876301;29;20056;-87
2022/10/31 09:13:35;;;;;;;;;;;;;;;;;;;;;
2022/10/31 09:16:01;;;;;;;1.85;0.73;;;12.20;99.90;;;;;;4860194;29;20038;-85
2022/10/31 09:18:27;;;;;;;1.60;0.87;;;12.30;99.90;;;;;;4844294;29;20075;-85
2022/10/31 09:20:57;;;;;;;3.08;1.00;;;12.50;99.90;;;;;;4858615;29;20045;-85
2022/10/31 09:23:23;;;;;;;1.40;0.93;;;12.50;99.90;;;;;;4843937;29;20041;-85
2022/10/31 09:25:51;;;;;;;1.88;1.10;;;12.70;99.90;;;;;;4826582;29;20152;-85
2022/10/31 09:28:20;;;;;;;1.60;0.80;;;12.70;99.90;;;;;;4838293;29;20061;-85
2022/10/31 09:30:47;;;;;;;1.45;1.10;;;13.00;99.90;;;;;;4843576;29;20481;-85
2022/10/31 09:33:14;;;;;;;2.10;1.00;;;13.10;99.90;;;;;;4843637;29;20124;-85
2022/10/31 09:35:40;;;;;;;1.73;0.77;;;13.20;99.90;;;;;;4860928;29;20479;-86
2022/10/31 09:38:09;;;;;;;0.98;0.77;;;13.40;99.90;;;;;;4859334;29;20057;-85
2022/10/31 09:40:39;;;;;;;1.25;0.82;;;13.40;99.90;;;;;;4840841;29;20070;-85
2022/10/31 09:43:40;;;;;;;0.98;0.77;;;13.60;99.90;;;;;;4845065;29;20052;-84
2022/10/31 09:46:26;;;;;;;1.67;1.23;;;13.70;99.90;;;;;;4841570;29;20090;-85
2022/10/31 09:49:12;;;;;;;1.23;0.70;;;13.80;99.90;;;;;;4861096;29;20041;-85
2022/10/31 09:51:47;;;;;;;2.85;0.82;;;13.70;99.90;;;;;;4842816;29;20533;-86
2022/10/31 09:54:46;;;;;;;0.98;0.90;;;13.70;99.90;;;;;;4857845;29;20038;-86
2022/10/31 09:57:14;;;;;;;;;;;13.60;99.90;;;;;;4856507;29;20048;-84
2022/10/31 09:59:41;;;;;;;0.47;0.45;;;13.50;99.90;;;;;;4843166;29;19935;-85
2022/10/31 10:02:19;;;;;;;0.60;0.60;;;13.60;99.90;;;;;;4858537;29;20042;-85
2022/10/31 10:04:50;;;;;;;1.45;0.40;;;13.60;99.90;;;;;;4858773;29;20050;-85
2022/10/31 10:07:26;;;;;;;1.20;0.95;;;13.80;99.90;;;;;;4858493;29;20076;-85
2022/10/31 10:09:52;;;;;;;1.08;0.77;;;13.80;99.90;;;;;;4844062;29;20061;-85
2022/10/31 10:12:35;;;;;;;0.83;0.63;;;13.80;99.90;;;;;;4859781;29;20053;-84
2022/10/31 10:15:25;;;;;;;1.42;0.90;;;13.80;99.90;;;;;;4844105;29;20081;-84
2022/10/31 10:18:14;;;;;;;1.58;0.75;;;13.90;99.90;;;;;;4858731;29;20082;-85
2022/10/31 10:21:17;;;;;;;1.42;0.95;;;13.80;99.90;;;;;;4867049;29;20117;-85
2022/10/31 10:23:57;;;;;;;1.92;0.60;;;13.80;99.90;;;;;;4785294;29;20055;-84
2022/10/31 10:26:42;;;;;;;1.02;0.85;;;13.80;99.90;;;;;;4850402;29;20420;-85
2022/10/31 10:29:41;;;;;;;0.73;0.70;;;13.90;99.90;;;;;;4858719;29;20450;-85
2022/10/31 10:32:26;;;;;;;1.00;0.70;;;14.10;99.90;;;;;;4857125;29;20053;-86
2022/10/31 10:34:57;;;;;;;1.13;0.60;;;14.30;99.90;;;;;;4856621;29;20113;-85
2022/10/31 10:37:37;;;;;;;2.00;0.90;;;14.50;99.90;;;;;;4857989;29;20045;-85
2022/10/31 10:40:26;;;;;;;0.88;0.85;;;14.70;99.90;;;;;;4842968;29;20049;-85
2022/10/31 10:43:22;;;;;;;1.13;0.60;;;14.90;99.90;;;;;;4858064;29;20137;-85
2022/10/31 10:49:28;;;;;;;2.57;1.17;;;15.20;99.90;;;;;;4858577;29;20054;-85
2022/10/31 10:51:56;;;;;;;0.47;0.47;;;15.50;99.90;;;;;;4856805;29;20078;-84
2022/10/31 10:54:43;;;;;;;1.33;0.38;;;15.60;99.90;;;;;;4857875;29;20074;-85
2022/10/31 10:57:28;;;;;;;0.52;0.38;;;15.60;99.90;;;;;;4842728;29;20493;-85
2022/10/31 10:59:54;;;;;;;1.38;0.60;;;15.70;99.90;;;;;;4842465;29;20057;-86
2022/10/31 11:02:27;;;;;;;0.47;0.43;;;15.80;99.90;;;;;;4827783;29;20137;-84
2022/10/31 11:04:56;;;;;;;2.40;0.50;;;15.90;99.90;;;;;;4840912;29;20366;-85
2022/10/31 11:07:22;;;;;;;0.40;0.40;;;16.20;99.90;;;;;;4858384;29;20493;-85
2022/10/31 11:09:48;;;;;;;0.45;0.32;;;16.30;99.90;;;;;;4842442;29;20063;-88
2022/10/31 11:12:22;;;;;;;0.38;0.38;;;16.50;99.90;;;;;;4842882;29;20128;-86
2022/10/31 11:14:52;;;;;;;0.65;0.60;;;16.70;99.90;;;;;;4858298;29;20083;-86
2022/10/31 11:17:30;;;;;;;1.13;0.80;;;17.00;99.90;;;;;;4842925;29;20564;-85
2022/10/31 11:20:14;;;;;;;0.55;0.38;;;17.10;99.90;;;;;;4857767;29;20060;-86
2022/10/31 11:22:45;;;;;;;1.65;0.98;;;17.10;99.90;;;;;;4859342;29;20520;-85
2022/10/31 11:25:24;;;;;;;0.50;0.38;;;17.00;99.90;;;;;;4861372;29;20046;-85
2022/10/31 11:28:04;;;;;;;0.65;0.32;;;16.90;99.90;;;;;;4844437;29;20046;-85
2022/10/31 11:30:35;;;;;;;0.70;0.35;;;16.70;99.90;;;;;;4859873;29;20493;-85
2022/10/31 11:33:01;;;;;;;0.65;0.65;;;16.70;99.90;;;;;;4861914;29;20386;-85
2022/10/31 11:35:28;;;;;;;0.50;0.35;;;16.60;99.90;;;;;;4861237;29;20456;-88
2022/10/31 11:37:58;;;;;;;1.85;0.80;;;16.50;99.90;;;;;;4861004;29;20045;-85
2022/10/31 11:40:27;;;;;;;0.43;0.43;;;16.30;99.90;;;;;;4845813;29;20055;-85
2022/10/31 11:42:57;;;;;;;0.50;0.30;;;16.20;99.90;;;;;;4845484;29;20041;-85
2022/10/31 11:45:22;;;;;;;0.60;0.60;;;16.10;99.90;;;;;;4844150;29;20568;-85
2022/10/31 11:47:51;;;;;;;0.93;0.63;;;16.10;99.90;;;;;;4846020;29;20049;-85
2022/10/31 11:50:24;;;;;;;0.63;0.63;;;16.00;99.90;;;;;;4845020;29;20546;-84
2022/10/31 11:52:51;;;;;;;0.63;0.50;;;16.00;99.90;;;;;;4845864;29;20045;-85
2022/10/31 11:55:31;;;;;;;0.35;0.30;;;16.00;99.90;;;;;;4860380;29;20049;-85
2022/10/31 11:57:57;;;;;;;0.30;0.20;;;16.00;99.90;;;;;;4860574;29;20041;-83
2022/10/31 12:00:30;;;;;;;0.85;0.45;;;15.90;99.90;;;;;;4828472;29;20048;-84
2022/10/31 12:03:13;;;;;;;0.85;0.40;;;15.90;99.90;;;;;;4845910;29;20045;-89
2022/10/31 12:05:41;;;;;;;1.15;0.60;;;15.90;99.90;;;;;;4845855;29;20064;-86
2022/10/31 12:08:12;;;;;;;0.63;0.40;;;15.90;99.90;;;;;;4861087;29;20049;-85
2022/10/31 12:11:08;;;;;;;0.20;0.20;;;15.90;99.90;;;;;;4845432;29;20053;-85
2022/10/31 12:13:44;;;;;;;1.15;0.50;;;15.90;99.90;;;;;;4824120;29;20057;-84
2022/10/31 12:16:21;;;;;;;0.38;0.35;;;15.90;99.90;;;;;;4860182;29;20053;-84
2022/10/31 12:19:02;;;;;;;0.40;0.32;;;15.80;99.90;;;;;;4860644;29;20053;-84
2022/10/31 12:21:47;;;;;;;0.20;0.20;;;15.70;99.90;;;;;;4845341;29;20046;-85
2022/10/31 12:24:12;;;;;;;0.30;0.30;;;15.70;99.90;;;;;;4844814;29;20041;-86
2022/10/31 12:26:47;;;;;;;0.27;0.20;;;15.80;99.90;;;;;;4845316;29;20412;-89
2022/10/31 12:29:15;;;;;;;0.10;0.10;;;15.90;99.90;;;;;;4858897;29;20457;-85
2022/10/31 12:32:28;;;;;;;0.20;0.20;;;15.90;99.90;;;;;;4860385;29;20045;-87
2022/10/31 12:35:16;;;;;;;0.60;0.50;;;15.90;99.90;;;;;;4783092;29;20089;-86
2022/10/31 12:37:53;;;;;;;0.10;0.10;;;15.90;99.90;;;;;;4839271;29;20062;-86
2022/10/31 12:40:32;;;;;;;0.10;0.10;;;15.80;99.90;;;;;;4859699;29;20045;-85
2022/10/31 12:43:22;;;;;;;0.30;0.20;;;15.80;99.90;;;;;;4844879;29;20049;-83
2022/10/31 12:45:59;;;;;;;0.30;0.10;;;15.80;99.90;;;;;;4844975;29;20402;-84
2022/10/31 12:48:24;;;;;;;0.20;0.20;;;15.80;99.90;;;;;;4860021;29;20078;-86
2022/10/31 12:50:55;;;;;;;0.67;0.40;;;15.80;99.90;;;;;;4838672;29;20057;-86
2022/10/31 12:53:26;;;;;;;0.47;0.30;;;15.80;99.90;;;;;;4830816;29;20400;-86
2022/10/31 12:56:02;;;;;;;1.38;0.70;;;15.80;99.90;;;;;;4836475;29;20091;-86
2022/10/31 12:58:40;;;;;;;0.22;0.10;;;15.80;99.90;;;;;;4848360;29;20045;-87
2022/10/31 13:01:50;;;;;;;0.20;0.20;;;15.80;99.90;;;;;;4848604;29;20108;-87
2022/10/31 13:04:33;;;;;;;0.70;0.30;;;15.80;99.90;;;;;;4847510;29;20053;-86
2022/10/31 13:07:07;;;;;;;0.50;0.50;;;15.80;99.90;;;;;;4848824;29;20112;-86
2022/10/31 13:09:49;;;;;;;0.10;0.10;;;15.70;99.90;;;;;;4848132;29;20499;-87
2022/10/31 13:12:19;;;;;;;1.08;0.32;;;15.60;99.90;;;;;;4827027;29;20046;-87
2022/10/31 13:14:54;;;;;;;0.38;0.30;;;15.70;99.90;;;;;;4827307;29;20038;-86
2022/10/31 13:17:36;;;;;;;0.88;0.35;;;15.80;99.90;;;;;;4811783;29;20056;-87